createdAt,value
2022-12-18T00:00:33.889Z,76.53
2022-12-18T00:03:03.687Z,74.22
2022-12-18T00:05:34.124Z,76.47
2022-12-18T00:08:03.097Z,80.88
2022-12-18T00:10:38.768Z,73.43
2022-12-18T00:13:18.234Z,75.75
2022-12-18T00:15:48.086Z,71.38
2022-12-18T00:18:20.404Z,77.78
2022-12-18T00:20:50.597Z,72.22
2022-12-18T00:23:19.922Z,71.10
2022-12-18T00:25:49.573Z,72.13
2022-12-18T00:28:18.741Z,71.78
2022-12-18T00:30:53.366Z,74.38
2022-12-18T00:33:23.073Z,76.22
2022-12-18T00:35:52.396Z,71.28
2022-12-18T00:38:21.865Z,75.75
2022-12-18T00:40:53.079Z,71.03
2022-12-18T00:43:22.892Z,72.68
2022-12-18T00:45:52.754Z,70.35
2022-12-18T00:48:23.344Z,68.82
2022-12-18T00:50:56.098Z,70.57
2022-12-18T00:53:25.782Z,73.75
2022-12-18T00:55:55.277Z,66.28
2022-12-18T00:58:25.060Z,65.95
2022-12-18T01:00:54.152Z,64.05
2022-12-18T01:03:23.324Z,62.22
2022-12-18T01:05:53.459Z,57.53
2022-12-18T01:08:23.222Z,59.90
2022-12-18T01:10:55.562Z,59.13
2022-12-18T01:13:31.689Z,62.47
2022-12-18T01:18:31.217Z,56.67
2022-12-18T01:21:01.762Z,59.20
2022-12-18T01:23:35.147Z,53.33
2022-12-18T01:26:09.253Z,57.05
2022-12-18T01:28:38.746Z,54.50
2022-12-18T01:31:19.061Z,55.28
2022-12-18T01:33:52.770Z,54.47
2022-12-18T01:36:31.826Z,53.70
2022-12-18T01:39:09.024Z,50.97
2022-12-18T01:41:56.380Z,49.47
2022-12-18T01:44:47.936Z,50.58
2022-12-18T01:47:18.398Z,47.17
2022-12-18T01:49:47.428Z,49.67
2022-12-18T01:52:16.597Z,48.70
2022-12-18T01:54:45.824Z,49.40
2022-12-18T01:57:14.996Z,51.17
2022-12-18T01:59:45.464Z,49.78
2022-12-18T02:02:14.836Z,46.38
2022-12-18T02:04:49.410Z,49.42
2022-12-18T02:09:50.323Z,48.03
2022-12-18T02:12:21.196Z,43.67
2022-12-18T02:14:54.133Z,47.88
2022-12-18T02:17:35.596Z,47.70
2022-12-18T02:20:11.335Z,42.35
2022-12-18T02:22:56.563Z,44.88
2022-12-18T02:25:37.167Z,45.83
2022-12-18T02:28:09.625Z,43.58
2022-12-18T02:30:39.644Z,41.47
2022-12-18T02:33:10.712Z,42.75
2022-12-18T02:35:44.278Z,45.78
2022-12-18T02:38:14.564Z,42.53
2022-12-18T02:40:46.359Z,41.05
2022-12-18T02:43:20.138Z,41.80
2022-12-18T02:45:56.528Z,42.28
2022-12-18T02:48:38.182Z,45.05
2022-12-18T02:51:09.130Z,49.03
2022-12-18T02:53:59.392Z,47.30
2022-12-18T02:56:34.567Z,46.72
2022-12-18T02:59:29.189Z,48.80
2022-12-18T03:02:00.950Z,47.10
2022-12-18T03:04:53.864Z,41.65
2022-12-18T03:07:29.171Z,46.85
2022-12-18T03:10:05.570Z,46.13
2022-12-18T03:12:42.411Z,47.22
2022-12-18T03:15:26.488Z,45.67
2022-12-18T03:18:04.029Z,45.85
2022-12-18T03:20:34.091Z,48.08
2022-12-18T03:23:13.082Z,52.28
2022-12-18T03:25:43.423Z,50.55
2022-12-18T03:28:13.243Z,49.70
2022-12-18T03:30:43.063Z,53.33
2022-12-18T03:33:19.471Z,50.63
2022-12-18T03:35:54.746Z,50.97
2022-12-18T03:38:25.455Z,51.53
2022-12-18T03:41:14.957Z,51.33
2022-12-18T03:44:13.091Z,51.15
2022-12-18T03:46:50.458Z,48.75
2022-12-18T03:49:22.943Z,50.95
2022-12-18T03:51:57.448Z,51.15
2022-12-18T03:54:27.424Z,46.53
2022-12-18T03:57:27.246Z,50.20
2022-12-18T04:00:07.394Z,48.28
2022-12-18T04:02:58.931Z,44.20
2022-12-18T04:05:36.701Z,46.88
2022-12-18T04:08:07.104Z,44.97
2022-12-18T04:10:40.848Z,42.90
2022-12-18T04:13:12.821Z,40.70
2022-12-18T04:15:43.247Z,44.58
2022-12-18T04:18:22.077Z,43.95
2022-12-18T04:20:51.792Z,43.20
2022-12-18T04:23:21.371Z,42.28
2022-12-18T04:25:53.125Z,39.83
2022-12-18T04:28:36.120Z,39.08
2022-12-18T04:31:06.750Z,39.03
2022-12-18T04:33:36.795Z,38.40
2022-12-18T04:36:07.088Z,36.60
2022-12-18T04:38:37.461Z,36.08
2022-12-18T04:41:11.258Z,36.72
2022-12-18T04:43:40.865Z,36.83
2022-12-18T04:46:11.256Z,38.42
2022-12-18T04:48:42.932Z,33.20
2022-12-18T04:51:12.191Z,33.65
2022-12-18T04:53:44.911Z,35.38
2022-12-18T04:56:16.747Z,32.50
2022-12-18T04:58:49.445Z,33.38
2022-12-18T05:01:19.898Z,35.28
2022-12-18T05:03:49.794Z,31.67
2022-12-18T05:06:19.084Z,30.08
2022-12-18T05:08:48.352Z,27.60
2022-12-18T05:11:17.702Z,32.97
2022-12-18T05:13:47.546Z,27.08
2022-12-18T05:16:16.670Z,28.95
2022-12-18T05:18:45.721Z,31.17
2022-12-18T05:21:18.327Z,25.27
2022-12-18T05:23:47.971Z,28.02
2022-12-18T05:26:27.335Z,27.67
2022-12-18T05:28:59.519Z,27.73
2022-12-18T05:31:28.688Z,29.77
2022-12-18T05:34:01.617Z,28.25
2022-12-18T05:36:31.436Z,27.35
2022-12-18T05:39:02.348Z,24.65
2022-12-18T05:41:32.597Z,25.55
2022-12-18T05:44:01.678Z,26.00
2022-12-18T05:46:31.642Z,22.55
2022-12-18T05:49:03.811Z,29.35
2022-12-18T05:51:39.297Z,23.75
2022-12-18T05:54:09.122Z,24.52
2022-12-18T05:56:38.261Z,23.75
2022-12-18T05:59:09.224Z,26.63
2022-12-18T06:01:38.520Z,25.52
2022-12-18T06:04:11.295Z,24.23
2022-12-18T06:06:41.147Z,20.48
2022-12-18T06:09:11.626Z,22.55
2022-12-18T06:11:42.979Z,25.00
2022-12-18T06:14:12.267Z,22.77
2022-12-18T06:16:41.297Z,22.95
2022-12-18T06:19:11.146Z,22.23
2022-12-18T06:21:40.710Z,23.13
2022-12-18T06:24:10.357Z,25.75
2022-12-18T06:26:40.505Z,23.70
2022-12-18T06:29:09.788Z,22.30
2022-12-18T06:31:39.168Z,21.55
2022-12-18T06:34:10.871Z,20.45
2022-12-18T06:36:40.768Z,21.55
2022-12-18T06:39:10.291Z,20.15
2022-12-18T06:41:39.490Z,24.38
2022-12-18T06:44:09.499Z,21.33
2022-12-18T06:46:43.586Z,19.27
2022-12-18T06:49:16.464Z,20.55
2022-12-18T06:51:46.043Z,23.20
2022-12-18T06:54:16.490Z,21.20
2022-12-18T06:56:47.824Z,22.60
2022-12-18T06:59:18.147Z,20.35
2022-12-18T07:01:48.230Z,22.92
2022-12-18T07:04:17.965Z,21.45
2022-12-18T07:06:47.119Z,19.92
2022-12-18T07:09:16.556Z,24.10
2022-12-18T07:11:46.129Z,20.75
2022-12-18T07:14:22.611Z,20.17
2022-12-18T07:16:55.850Z,21.35
2022-12-18T07:19:25.751Z,21.77
2022-12-18T07:21:55.415Z,18.77
2022-12-18T07:24:25.200Z,17.88
2022-12-18T07:27:01.965Z,18.27
2022-12-18T07:29:31.752Z,19.58
2022-12-18T07:32:01.558Z,17.33
2022-12-18T07:34:31.045Z,18.92
2022-12-18T07:37:00.064Z,18.92
2022-12-18T07:39:29.797Z,16.65
2022-12-18T07:42:17.506Z,17.27
2022-12-18T07:44:46.781Z,18.38
2022-12-18T07:47:16.277Z,15.23
2022-12-18T07:49:46.170Z,16.05
2022-12-18T07:52:15.780Z,23.08
2022-12-18T07:54:45.355Z,19.65
2022-12-18T07:57:34.058Z,16.70
2022-12-18T08:00:06.709Z,16.70
2022-12-18T08:02:42.296Z,17.90
2022-12-18T08:05:11.948Z,16.27
2022-12-18T08:07:41.542Z,16.27
2022-12-18T08:10:11.292Z,18.35
2022-12-18T08:12:40.835Z,16.65
2022-12-18T08:15:11.243Z,14.65
2022-12-18T08:17:40.957Z,19.35
2022-12-18T08:20:10.949Z,16.20
2022-12-18T08:22:41.062Z,16.40
2022-12-18T08:25:18.840Z,17.48
2022-12-18T08:27:48.234Z,17.75
2022-12-18T08:30:17.330Z,14.52
2022-12-18T08:32:48.263Z,17.67
2022-12-18T08:35:18.880Z,17.08
2022-12-18T08:37:49.860Z,13.32
2022-12-18T08:40:19.720Z,15.48
2022-12-18T08:43:11.367Z,12.85
2022-12-18T08:45:40.510Z,15.43
2022-12-18T08:48:09.991Z,13.18
2022-12-18T08:50:39.332Z,13.07
2022-12-18T08:53:08.440Z,12.68
2022-12-18T08:55:37.983Z,12.40
2022-12-18T08:58:07.748Z,13.55
2022-12-18T09:00:40.463Z,20.33
2022-12-18T09:03:20.013Z,14.45
2022-12-18T09:05:49.576Z,15.20
2022-12-18T09:08:18.552Z,12.52
2022-12-18T09:10:48.745Z,15.70
2022-12-18T09:13:17.920Z,18.40
2022-12-18T09:15:48.018Z,17.73
2022-12-18T09:18:17.576Z,15.57
2022-12-18T09:20:46.839Z,17.25
2022-12-18T09:23:16.097Z,16.92
2022-12-18T09:25:45.258Z,15.68
2022-12-18T09:28:17.699Z,16.55
2022-12-18T09:30:48.522Z,15.20
2022-12-18T09:33:18.408Z,17.67
2022-12-18T09:35:49.807Z,18.13
2022-12-18T09:38:23.402Z,17.30
2022-12-18T09:40:54.406Z,17.67
2022-12-18T09:43:26.760Z,20.80
2022-12-18T09:45:58.562Z,21.67
2022-12-18T09:48:35.054Z,19.20
2022-12-18T09:51:06.041Z,20.20
2022-12-18T09:53:36.212Z,20.15
2022-12-18T09:56:06.509Z,23.35
2022-12-18T09:58:40.425Z,22.45
2022-12-18T10:01:15.062Z,23.65
2022-12-18T10:03:47.717Z,23.35
2022-12-18T10:06:36.096Z,26.92
2022-12-18T10:09:05.374Z,23.92
2022-12-18T10:11:43.741Z,27.08
2022-12-18T10:14:14.970Z,24.17
2022-12-18T10:16:55.469Z,26.90
2022-12-18T10:20:01.824Z,24.77
2022-12-18T10:22:37.194Z,28.55
2022-12-18T10:25:07.209Z,32.10
2022-12-18T10:27:36.796Z,25.20
2022-12-18T10:30:10.392Z,26.55
2022-12-18T10:32:40.300Z,27.00
2022-12-18T10:35:36.286Z,32.38
2022-12-18T10:38:05.568Z,29.17
2022-12-18T10:40:35.144Z,27.92
2022-12-18T10:43:24.692Z,29.70
2022-12-18T10:46:01.800Z,28.38
2022-12-18T10:48:32.032Z,32.08
2022-12-18T10:51:10.745Z,30.63
2022-12-18T10:53:42.502Z,31.58
2022-12-18T10:56:12.557Z,31.63
2022-12-18T10:58:42.478Z,34.90
2022-12-18T11:01:17.640Z,31.55
2022-12-18T11:03:48.539Z,36.53
2022-12-18T11:06:26.503Z,33.65
2022-12-18T11:09:12.279Z,35.30
2022-12-18T11:11:56.311Z,37.53
2022-12-18T11:14:29.812Z,38.42
2022-12-18T11:19:48.813Z,41.40
2022-12-18T11:22:21.380Z,46.85
2022-12-18T11:25:29.600Z,48.00
2022-12-18T11:27:44.580Z,53.78
2022-12-18T11:30:24.197Z,49.05
2022-12-18T11:33:01.698Z,63.50
2022-12-18T11:36:05.863Z,68.63
2022-12-18T11:38:36.574Z,88.10
2022-12-18T11:41:24.233Z,93.60
2022-12-18T11:44:00.362Z,102.47
2022-12-18T11:50:58.071Z,108.80
2022-12-18T11:53:28.437Z,116.28
2022-12-18T11:59:04.711Z,116.35
2022-12-18T12:05:13.613Z,126.90
2022-12-18T12:10:56.992Z,134.77
2022-12-18T12:13:30.321Z,155.23
2022-12-18T12:22:11.418Z,180.52
2022-12-18T12:31:12.257Z,181.25
2022-12-18T12:33:47.816Z,188.77
2022-12-18T12:36:35.947Z,180.98
2022-12-18T12:45:38.661Z,181.48
2022-12-18T12:54:47.146Z,185.70
2022-12-18T13:00:28.101Z,189.32
2022-12-18T13:03:26.541Z,188.32
2022-12-18T13:12:58.667Z,200.45
2022-12-18T13:19:21.385Z,196.02
2022-12-18T13:34:27.679Z,195.35
2022-12-18T13:37:01.024Z,192.70
2022-12-18T13:39:36.981Z,208.32
2022-12-18T13:46:10.819Z,211.85
2022-12-18T13:48:40.503Z,196.23
2022-12-18T14:01:06.665Z,195.27
2022-12-18T14:03:37.897Z,189.63
2022-12-18T14:06:32.261Z,191.13
2022-12-18T14:12:26.548Z,192.13
2022-12-18T14:15:04.421Z,186.73
2022-12-18T14:17:43.510Z,189.88
2022-12-18T14:20:17.377Z,188.73
2022-12-18T14:23:18.416Z,182.95
2022-12-18T14:32:22.032Z,178.20
2022-12-18T14:38:11.263Z,177.18
2022-12-18T14:40:43.271Z,175.75
2022-12-18T14:43:14.428Z,172.40
2022-12-18T14:45:48.156Z,178.77
2022-12-18T14:48:23.969Z,175.88
2022-12-18T15:06:19.252Z,171.60
2022-12-18T15:09:15.530Z,168.23
2022-12-18T15:12:09.640Z,164.13
2022-12-18T15:23:19.085Z,165.07
2022-12-18T15:29:18.453Z,167.02
2022-12-18T15:32:29.886Z,157.70
2022-12-18T15:35:12.555Z,155.05
2022-12-18T15:40:51.514Z,164.70
2022-12-18T15:43:40.417Z,153.65
2022-12-18T15:49:20.430Z,159.70
2022-12-18T15:52:01.507Z,154.75
2022-12-18T16:10:30.889Z,158.80
2022-12-18T16:16:33.491Z,160.50
2022-12-18T16:28:39.278Z,170.63
2022-12-18T16:31:11.635Z,167.82
2022-12-18T16:42:53.608Z,180.95
2022-12-18T16:45:34.605Z,179.00
2022-12-18T16:54:11.006Z,184.90
2022-12-18T17:02:49.110Z,187.57
2022-12-18T17:05:22.317Z,184.15
2022-12-18T17:10:54.857Z,195.32
2022-12-18T17:13:35.762Z,193.27
2022-12-18T17:16:30.148Z,200.25
2022-12-18T17:22:20.276Z,205.55
2022-12-18T17:25:43.044Z,206.77
2022-12-18T17:28:17.251Z,210.25
2022-12-18T17:33:50.522Z,213.75
2022-12-18T17:36:19.968Z,211.48
2022-12-18T17:38:53.308Z,206.55
2022-12-18T17:44:16.170Z,202.38
2022-12-18T17:46:49.835Z,188.05
2022-12-18T17:58:58.773Z,198.30
2022-12-18T18:01:28.543Z,189.35
2022-12-18T18:03:58.375Z,193.98
2022-12-18T18:06:49.609Z,182.95
2022-12-18T18:09:20.802Z,193.48
2022-12-18T18:12:12.383Z,187.63
2022-12-18T18:15:34.050Z,192.65
2022-12-18T18:18:04.097Z,180.40
2022-12-18T18:20:33.783Z,178.48
2022-12-18T18:26:07.353Z,178.68
2022-12-18T18:28:41.603Z,173.82
2022-12-18T18:31:14.373Z,175.00
2022-12-18T18:42:49.255Z,176.48
2022-12-18T18:45:19.010Z,169.80
2022-12-18T18:48:19.445Z,169.93
2022-12-18T18:51:07.706Z,163.32
2022-12-18T18:57:21.683Z,153.77
2022-12-18T18:59:52.545Z,156.65
2022-12-18T19:02:30.118Z,156.82
2022-12-18T19:05:15.041Z,159.00
2022-12-18T19:07:51.789Z,164.15
2022-12-18T19:13:32.149Z,161.80
2022-12-18T19:20:12.469Z,173.07
2022-12-18T19:23:41.123Z,171.32
2022-12-18T19:26:28.853Z,181.40
2022-12-18T19:29:42.950Z,164.80
2022-12-18T19:32:39.930Z,179.35
2022-12-18T19:35:09.833Z,178.63
2022-12-18T19:37:39.740Z,174.05
2022-12-18T19:40:12.274Z,171.98
2022-12-18T19:51:55.439Z,164.20
2022-12-18T19:54:24.883Z,165.95
2022-12-18T19:56:55.916Z,166.85
2022-12-18T19:59:25.510Z,166.48
2022-12-18T20:11:41.543Z,155.35
2022-12-18T20:17:32.658Z,140.43
2022-12-18T20:20:09.717Z,148.75
2022-12-18T20:22:49.242Z,148.93
2022-12-18T20:25:21.549Z,153.85
2022-12-18T20:27:51.266Z,149.65
2022-12-18T20:30:20.906Z,148.38
2022-12-18T20:33:31.864Z,141.05
2022-12-18T20:42:06.429Z,145.13
2022-12-18T20:44:39.380Z,146.18
2022-12-18T20:50:04.333Z,147.30
2022-12-18T20:55:42.719Z,141.70
2022-12-18T21:02:08.141Z,143.85
2022-12-18T21:14:12.608Z,130.20
2022-12-18T21:19:40.744Z,124.22
2022-12-18T21:22:35.879Z,129.90
2022-12-18T21:28:13.887Z,122.15
2022-12-18T21:40:08.201Z,110.85
2022-12-18T21:42:57.426Z,121.63
2022-12-18T21:51:37.376Z,111.65
2022-12-18T21:58:30.171Z,112.78
2022-12-18T22:07:16.928Z,107.53
2022-12-18T22:13:18.285Z,118.55
2022-12-18T22:22:29.444Z,119.95
2022-12-18T22:25:00.659Z,113.93
2022-12-18T22:27:35.564Z,114.28
2022-12-18T22:30:05.705Z,118.50
2022-12-18T22:32:36.394Z,121.15
2022-12-18T22:35:15.789Z,118.78
2022-12-18T22:37:45.837Z,115.65
2022-12-18T22:40:23.693Z,121.60
2022-12-18T22:46:04.551Z,116.38
2022-12-18T22:48:59.408Z,119.72
2022-12-18T22:51:29.180Z,120.80
2022-12-18T22:54:02.619Z,124.68
2022-12-18T22:56:32.850Z,120.85
2022-12-18T23:05:09.858Z,124.05
2022-12-18T23:07:43.548Z,121.30
2022-12-18T23:10:14.374Z,118.43
2022-12-18T23:12:51.197Z,123.88
2022-12-18T23:15:46.293Z,117.53
2022-12-18T23:21:31.923Z,118.93
2022-12-18T23:24:31.175Z,114.38
2022-12-18T23:27:30.835Z,120.90
2022-12-18T23:36:46.547Z,113.10
2022-12-18T23:39:22.386Z,101.10
2022-12-18T23:46:03.732Z,105.07
2022-12-18T23:48:32.893Z,103.25
2022-12-18T23:51:26.830Z,107.05
